createdAt,value
2017-04-12T00:04:03.594Z,58.78
2017-04-12T00:04:44.327Z,58.78
2017-04-12T00:05:25.040Z,58.49
2017-04-12T00:06:05.794Z,59.14
2017-04-12T00:06:46.543Z,59.04
2017-04-12T00:07:27.278Z,59.14
2017-04-12T00:08:08.033Z,59.75
2017-04-12T00:08:48.848Z,59.65
2017-04-12T00:09:29.667Z,59.65
2017-04-12T00:10:10.403Z,59.55
2017-04-12T00:10:51.156Z,59.72
2017-04-12T00:11:31.831Z,59.33
2017-04-12T00:12:12.591Z,59.52
2017-04-12T00:12:53.352Z,59.14
2017-04-12T00:13:34.117Z,59.36
2017-04-12T00:14:14.893Z,59.36
2017-04-12T00:14:55.768Z,59.55
2017-04-12T00:15:36.433Z,59.81
2017-04-12T00:16:17.169Z,59.72
2017-04-12T00:16:57.912Z,59.45
2017-04-12T00:17:38.659Z,59.72
2017-04-12T00:18:19.399Z,59.36
2017-04-12T00:19:00.118Z,59.36
2017-04-12T00:19:40.886Z,59.36
2017-04-12T00:20:21.681Z,59.23
2017-04-12T00:21:02.367Z,59.23
2017-04-12T00:21:43.169Z,59.33
2017-04-12T00:22:23.823Z,59.45
2017-04-12T00:23:04.611Z,59.72
2017-04-12T00:23:45.461Z,59.52
2017-04-12T00:24:26.262Z,59.45
2017-04-12T00:25:06.937Z,59.84
2017-04-12T00:25:47.672Z,59.75
2017-04-12T00:26:28.412Z,60.42
2017-04-12T00:27:09.214Z,59.94
2017-04-12T00:27:49.960Z,59.94
2017-04-12T00:31:21.332Z,59.94
2017-04-12T00:32:02.730Z,60.23
2017-04-12T00:32:42.859Z,60.23
2017-04-12T00:33:23.635Z,59.55
2017-04-12T00:34:04.347Z,59.65
2017-04-12T00:34:45.142Z,59.75
2017-04-12T00:35:25.927Z,60.03
2017-04-12T00:36:06.752Z,60.13
2017-04-12T00:36:47.499Z,60.8
2017-04-12T00:37:28.177Z,60.03
2017-04-12T00:38:08.974Z,60.03
2017-04-12T00:38:49.782Z,59.94
2017-04-12T00:39:30.519Z,60.03
2017-04-12T00:40:11.294Z,59.75
2017-04-12T00:40:52.084Z,59.94
2017-04-12T00:41:32.811Z,60.23
2017-04-12T00:42:13.596Z,59.65
2017-04-12T00:44:28.939Z,60.32
2017-04-12T00:45:09.672Z,60.23
2017-04-12T00:45:50.445Z,60.23
2017-04-12T00:46:31.159Z,60.42
2017-04-12T00:47:12.588Z,60.9
2017-04-12T00:47:53.276Z,60.61
2017-04-12T00:48:34.003Z,60.42
2017-04-12T00:49:14.824Z,60.71
2017-04-12T00:49:55.552Z,60.32
2017-04-12T00:50:36.319Z,60.32
2017-04-12T00:51:17.126Z,60.71
2017-04-12T00:51:57.908Z,60.71
2017-04-12T00:52:38.735Z,60.71
2017-04-12T00:53:19.511Z,61.1
2017-04-12T00:54:00.280Z,61.1
2017-04-12T00:54:41.052Z,61.1
2017-04-12T00:55:21.751Z,60.42
2017-04-12T00:56:02.405Z,60.71
2017-04-12T00:56:43.204Z,60.32
2017-04-12T00:57:23.995Z,60.32
2017-04-12T00:58:04.798Z,60.61
2017-04-12T00:58:45.526Z,60.61
2017-04-12T00:59:26.302Z,60.23
2017-04-12T01:00:07.073Z,61
2017-04-12T01:00:47.884Z,60.9
2017-04-12T01:01:28.692Z,60.8
2017-04-12T01:02:09.524Z,60.9
2017-04-12T01:02:50.281Z,60.8
2017-04-12T01:03:30.998Z,60.61
2017-04-12T01:04:11.785Z,60.9
2017-04-12T01:04:52.501Z,60.9
2017-04-12T01:05:33.329Z,60.71
2017-04-12T01:06:14.189Z,60.9
2017-04-12T01:06:54.909Z,60.71
2017-04-12T01:07:35.654Z,61
2017-04-12T01:08:16.415Z,61
2017-04-12T01:08:57.197Z,60.9
2017-04-12T01:09:37.928Z,60.42
2017-04-12T01:10:18.655Z,60.8
2017-04-12T01:10:59.432Z,60.9
2017-04-12T01:11:40.113Z,60.8
2017-04-12T01:12:20.887Z,61.1
2017-04-12T01:13:01.645Z,60.71
2017-04-12T01:13:42.359Z,60.32
2017-04-12T01:14:23.092Z,60.9
2017-04-12T01:15:03.794Z,60.8
2017-04-12T01:15:44.620Z,60.9
2017-04-12T01:16:25.412Z,60.52
2017-04-12T01:17:06.173Z,60.8
2017-04-12T01:17:46.968Z,60.8
2017-04-12T01:18:27.715Z,61.19
2017-04-12T01:19:08.472Z,60.71
2017-04-12T01:19:49.250Z,60.9
2017-04-12T01:20:29.956Z,61.1
2017-04-12T01:21:10.694Z,60.9
2017-04-12T01:21:51.435Z,60.61
2017-04-12T01:22:32.315Z,61
2017-04-12T01:23:13.066Z,61.38
2017-04-12T01:23:53.811Z,60.71
2017-04-12T01:24:34.495Z,61.29
2017-04-12T01:25:15.344Z,61.19
2017-04-12T01:25:56.046Z,61.1
2017-04-12T01:26:36.810Z,60.8
2017-04-12T01:27:17.558Z,61.1
2017-04-12T01:27:58.287Z,60.9
2017-04-12T01:28:38.937Z,61.1
2017-04-12T01:29:19.763Z,61.19
2017-04-12T01:30:00.476Z,60.9
2017-04-12T01:30:41.224Z,61
2017-04-12T01:31:22.018Z,61.1
2017-04-12T01:32:02.864Z,60.9
2017-04-12T01:32:43.568Z,61.68
2017-04-12T01:33:24.383Z,61.48
2017-04-12T01:34:05.149Z,61.87
2017-04-12T01:34:45.886Z,61.19
2017-04-12T01:35:26.682Z,61.58
2017-04-12T01:36:07.390Z,61.1
2017-04-12T01:36:48.203Z,61.19
2017-04-12T01:37:28.941Z,61.87
2017-04-12T01:38:09.677Z,61.58
2017-04-12T01:38:50.421Z,61.96
2017-04-12T01:39:31.066Z,61.55
2017-04-12T01:40:11.867Z,61.87
2017-04-12T01:40:52.670Z,61.68
2017-04-12T01:41:33.438Z,61.58
2017-04-12T01:42:14.082Z,61.87
2017-04-12T01:42:54.882Z,61.77
2017-04-12T01:43:35.608Z,61.77
2017-04-12T01:44:16.376Z,61.68
2017-04-12T01:44:57.067Z,61.58
2017-04-12T01:45:37.841Z,61.58
2017-04-12T01:46:18.632Z,61.96
2017-04-12T01:46:59.414Z,61.77
2017-04-12T01:47:40.244Z,61.48
2017-04-12T01:48:20.969Z,61.68
2017-04-12T01:49:01.712Z,61.68
2017-04-12T01:49:42.515Z,61.58
2017-04-12T01:50:23.269Z,61.58
2017-04-12T01:51:04.013Z,61.58
2017-04-12T01:51:44.768Z,61.74
2017-04-12T01:52:25.580Z,61.58
2017-04-12T01:53:06.366Z,61.68
2017-04-12T01:53:47.059Z,61.65
2017-04-12T01:54:27.825Z,61.68
2017-04-12T01:55:08.556Z,62.35
2017-04-12T01:55:49.251Z,61.96
2017-04-12T01:56:30.093Z,61.48
2017-04-12T01:57:10.776Z,62.15
2017-04-12T01:57:51.511Z,62.15
2017-04-12T01:58:32.250Z,61.77
2017-04-12T01:59:13.064Z,61.77
2017-04-12T01:59:53.903Z,62.06
2017-04-12T02:00:34.671Z,61.87
2017-04-12T02:01:15.424Z,62.15
2017-04-12T02:01:56.140Z,62.35
2017-04-12T02:02:36.963Z,62.06
2017-04-12T02:03:17.739Z,62.06
2017-04-12T02:03:58.515Z,62.06
2017-04-12T02:04:39.202Z,62.25
2017-04-12T02:05:19.972Z,62.15
2017-04-12T02:06:00.742Z,62.35
2017-04-12T02:06:41.465Z,62.45
2017-04-12T02:07:22.244Z,62.63
2017-04-12T02:08:02.942Z,62.45
2017-04-12T02:08:43.663Z,62.15
2017-04-12T02:09:24.405Z,62.06
2017-04-12T02:10:05.103Z,62.45
2017-04-12T02:10:45.916Z,62.54
2017-04-12T02:11:26.705Z,62.41
2017-04-12T02:12:07.394Z,62.35
2017-04-12T02:12:49.063Z,62.25
2017-04-12T02:13:28.852Z,62.41
2017-04-12T02:14:09.579Z,62.15
2017-04-12T02:14:50.360Z,62.51
2017-04-12T02:15:31.097Z,62.32
2017-04-12T02:16:12.001Z,62.12
2017-04-12T02:16:52.712Z,62.6
2017-04-12T02:17:33.441Z,62.12
2017-04-12T02:18:14.255Z,62.54
2017-04-12T02:18:54.990Z,62.73
2017-04-12T02:19:35.636Z,62.12
2017-04-12T02:20:16.375Z,62.15
2017-04-12T02:20:57.128Z,62.54
2017-04-12T02:21:37.988Z,62.93
2017-04-12T02:22:18.700Z,63.02
2017-04-12T02:24:13.797Z,63.09
2017-04-12T02:24:54.510Z,62.9
2017-04-12T02:25:35.187Z,63.28
2017-04-12T02:26:15.934Z,63.38
2017-04-12T02:26:59.251Z,63.28
2017-04-12T02:38:28.026Z,63.02
2017-04-12T02:39:08.769Z,62.54
2017-04-12T02:39:49.537Z,62.25
2017-04-12T02:40:30.262Z,62.15
2017-04-12T02:41:11.047Z,62.25
2017-04-12T02:41:51.947Z,62.45
2017-04-12T02:42:32.658Z,62.06
2017-04-12T02:43:13.411Z,62.15
2017-04-12T02:43:54.182Z,62.45
2017-04-12T02:44:34.880Z,62.35
2017-04-12T02:45:15.681Z,62.25
2017-04-12T02:45:56.415Z,62.25
2017-04-12T02:46:37.167Z,62.15
2017-04-12T02:47:17.883Z,62.35
2017-04-12T02:47:58.620Z,62.35
2017-04-12T02:48:40.000Z,62.45
2017-04-12T02:49:20.774Z,62.35
2017-04-12T02:50:01.529Z,62.25
2017-04-12T02:50:42.289Z,62.54
2017-04-12T02:51:23.126Z,62.63
2017-04-12T02:52:03.884Z,62.63
2017-04-12T02:52:44.613Z,62.03
2017-04-12T02:53:25.432Z,61.96
2017-04-12T02:54:06.209Z,62.45
2017-04-12T02:54:46.903Z,62.51
2017-04-12T02:55:27.623Z,62.7
2017-04-12T02:56:08.288Z,62.45
2017-04-12T02:56:49.055Z,62.35
2017-04-12T02:57:29.788Z,62.15
2017-04-12T02:58:10.472Z,62.25
2017-04-12T02:58:51.237Z,62.12
2017-04-12T02:59:32.038Z,62.35
2017-04-12T03:00:12.784Z,62.41
2017-04-12T03:00:53.578Z,62.25
2017-04-12T03:01:34.486Z,62.06
2017-04-12T03:02:15.141Z,62.15
2017-04-12T03:02:55.884Z,62.35
2017-04-12T03:03:36.691Z,62.32
2017-04-12T03:05:53.157Z,62.22
2017-04-12T03:06:33.967Z,62.54
2017-04-12T03:07:14.622Z,62.41
2017-04-12T03:07:55.386Z,62.22
2017-04-12T03:08:36.211Z,62.41
2017-04-12T03:09:16.999Z,62.41
2017-04-12T03:11:12.174Z,62.12
2017-04-12T03:11:52.911Z,62.22
2017-04-12T03:12:33.640Z,62.41
2017-04-12T03:13:14.404Z,62.73
2017-04-12T03:13:55.125Z,62.54
2017-04-12T03:14:35.900Z,62.15
2017-04-12T03:15:16.657Z,62.15
2017-04-12T03:15:57.377Z,61.96
2017-04-12T03:16:38.159Z,62.35
2017-04-12T03:17:18.870Z,62.25
2017-04-12T03:17:59.619Z,62.06
2017-04-12T03:18:40.355Z,62.06
2017-04-12T03:19:21.098Z,62.12
2017-04-12T03:20:01.909Z,62.25
2017-04-12T03:20:42.713Z,62.63
2017-04-12T03:21:23.475Z,62.51
2017-04-12T03:22:04.262Z,62.51
2017-04-12T03:22:45.021Z,62.45
2017-04-12T03:23:25.734Z,62.15
2017-04-12T03:24:06.454Z,62.25
2017-04-12T03:24:47.245Z,62.32
2017-04-12T03:25:27.957Z,62.54
2017-04-12T03:26:08.712Z,62.22
2017-04-12T03:26:49.484Z,62.32
2017-04-12T03:27:30.175Z,62.15
2017-04-12T03:28:10.953Z,62.41
2017-04-12T03:28:51.762Z,63.02
2017-04-12T03:29:32.557Z,62.51
2017-04-12T03:30:13.355Z,62.22
2017-04-12T03:30:54.090Z,62.25
2017-04-12T03:31:34.827Z,62.03
2017-04-12T03:32:15.577Z,62.73
2017-04-12T03:32:56.336Z,62.93
2017-04-12T03:33:37.120Z,62.9
2017-04-12T03:34:17.896Z,62.51
2017-04-12T03:34:58.614Z,62.45
2017-04-12T03:35:39.286Z,62.99
2017-04-12T03:36:20.025Z,62.45
2017-04-12T03:37:00.758Z,62.6
2017-04-12T03:37:41.485Z,63.02
2017-04-12T03:38:22.248Z,62.54
2017-04-12T03:39:03.070Z,62.54
2017-04-12T03:39:43.748Z,63.02
2017-04-12T03:40:24.510Z,62.83
2017-04-12T03:41:05.240Z,63.18
2017-04-12T03:41:45.997Z,63.18
2017-04-12T03:42:26.722Z,63.18
2017-04-12T03:43:07.420Z,63.18
2017-04-12T03:43:48.149Z,62.93
2017-04-12T03:44:28.991Z,62.6
2017-04-12T03:45:09.771Z,63.28
2017-04-12T03:45:51.638Z,62.8
2017-04-12T03:46:40.463Z,63.28
2017-04-12T03:48:45.786Z,63.09
2017-04-12T03:49:26.487Z,62.9
2017-04-12T03:50:07.294Z,62.8
2017-04-12T03:50:48.022Z,63.28
2017-04-12T03:51:28.759Z,63.18
2017-04-12T03:52:09.511Z,63.28
2017-04-12T03:52:50.258Z,63.38
2017-04-12T03:53:31.077Z,63.38
2017-04-12T03:54:11.809Z,62.99
2017-04-12T04:08:47.842Z,63.38
2017-04-12T04:09:28.604Z,63.31
2017-04-12T04:10:09.361Z,62.99
2017-04-12T04:10:50.113Z,63.28
2017-04-12T04:11:30.894Z,63.5
2017-04-12T04:12:11.626Z,63.18
2017-04-12T04:12:52.474Z,63.5
2017-04-12T04:13:33.250Z,63.31
2017-04-12T04:14:13.988Z,63.21
2017-04-12T04:14:54.685Z,63.02
2017-04-12T04:15:35.412Z,63.31
2017-04-12T04:16:16.239Z,62.93
2017-04-12T04:16:56.909Z,63.02
2017-04-12T04:17:37.655Z,63.31
2017-04-12T04:18:21.131Z,63.21
2017-04-12T04:19:01.882Z,63.57
2017-04-12T04:19:42.676Z,63.5
2017-04-12T04:20:23.361Z,63.47
2017-04-12T04:21:04.120Z,63.41
2017-04-12T04:21:44.872Z,63.79
2017-04-12T04:22:25.697Z,63.28
2017-04-12T04:23:06.388Z,63.31
2017-04-12T04:28:52.241Z,63.7
2017-04-12T04:29:32.974Z,63.57
2017-04-12T04:30:13.703Z,63.57
2017-04-12T04:33:57.334Z,63.41
2017-04-12T04:34:38.084Z,63.57
2017-04-12T04:35:18.803Z,63.18
2017-04-12T04:36:01.660Z,63.57
2017-04-12T04:40:01.285Z,63.85
2017-04-12T04:40:42.011Z,63.5
2017-04-12T04:41:22.756Z,63.79
2017-04-12T04:42:03.507Z,63.95
2017-04-12T04:42:44.278Z,63.57
2017-04-12T04:43:25.045Z,63.79
2017-04-12T04:44:05.795Z,63.67
2017-04-12T04:44:46.548Z,63.76
2017-04-12T04:45:27.366Z,63.7
2017-04-12T04:46:08.136Z,63.7
2017-04-12T04:46:48.864Z,63.67
2017-04-12T04:47:29.548Z,63.67
2017-04-12T04:48:10.318Z,63.67
2017-04-12T04:48:51.043Z,63.47
2017-04-12T04:49:31.737Z,63.02
2017-04-12T04:50:12.488Z,63.38
2017-04-12T04:50:53.245Z,63.38
2017-04-12T04:51:33.989Z,63.28
2017-04-12T04:52:14.720Z,63.38
2017-04-12T04:52:55.513Z,63.28
2017-04-12T04:53:36.282Z,63.31
2017-04-12T04:54:17.113Z,63.57
2017-04-12T04:54:57.828Z,63.09
2017-04-12T04:55:38.613Z,63.57
2017-04-12T04:56:19.326Z,63.57
2017-04-12T04:57:00.046Z,63.28
2017-04-12T04:57:40.796Z,63.41
2017-04-12T04:58:21.562Z,63.5
2017-04-12T04:59:02.337Z,63.47
2017-04-12T04:59:43.063Z,63.38
2017-04-12T05:00:23.824Z,63.28
2017-04-12T05:01:04.614Z,63.57
2017-04-12T05:01:45.316Z,63.47
2017-04-12T05:02:26.016Z,63.38
2017-04-12T05:03:06.776Z,63.28
2017-04-12T05:03:47.557Z,63.57
2017-04-12T05:04:28.283Z,63.47
2017-04-12T05:05:09.030Z,63.38
2017-04-12T05:05:49.745Z,63.47
2017-04-12T05:06:31.416Z,63.6
2017-04-12T05:07:11.331Z,63.47
2017-04-12T05:07:52.082Z,63.57
2017-04-12T05:08:32.885Z,63.47
2017-04-12T05:10:33.158Z,63.47
2017-04-12T05:11:13.855Z,63.38
2017-04-12T05:11:54.622Z,63.47
2017-04-12T05:12:35.310Z,63.57
2017-04-12T05:13:16.077Z,63.47
2017-04-12T05:13:56.710Z,63.47
2017-04-12T05:14:37.416Z,63.47
2017-04-12T05:15:18.159Z,63.47
2017-04-12T05:15:58.889Z,63.57
2017-04-12T05:16:39.624Z,63.57
2017-04-12T05:28:25.819Z,63.57
2017-04-12T05:29:06.584Z,63.95
2017-04-12T05:29:47.371Z,63.67
2017-04-12T05:30:28.130Z,63.95
2017-04-12T05:31:08.829Z,63.85
2017-04-12T05:31:49.642Z,63.57
2017-04-12T05:32:30.360Z,63.79
2017-04-12T05:33:11.091Z,63.76
2017-04-12T05:33:51.848Z,63.85
2017-04-12T05:34:32.599Z,63.95
2017-04-12T05:35:13.383Z,63.76
2017-04-12T05:35:54.119Z,63.57
2017-04-12T05:36:34.894Z,63.67
2017-04-12T05:37:15.585Z,63.95
2017-04-12T05:37:56.335Z,63.76
2017-04-12T05:38:37.143Z,63.95
2017-04-12T05:39:17.791Z,63.95
2017-04-12T05:39:58.583Z,63.57
2017-04-12T05:40:39.312Z,63.76
2017-04-12T05:41:20.042Z,63.57
2017-04-12T05:42:00.707Z,63.57
2017-04-12T05:42:41.529Z,63.95
2017-04-12T05:43:22.304Z,63.85
2017-04-12T05:44:03.016Z,63.57
2017-04-12T05:44:43.846Z,63.85
2017-04-12T05:45:24.623Z,63.76
2017-04-12T05:46:05.534Z,63.85
2017-04-12T05:46:46.393Z,63.76
2017-04-12T05:47:27.141Z,63.67
2017-04-12T05:48:07.846Z,63.67
2017-04-12T05:48:48.677Z,63.57
2017-04-12T05:49:29.379Z,63.67
2017-04-12T05:50:10.088Z,63.67
2017-04-12T05:50:50.907Z,64.05
2017-04-12T05:51:31.672Z,63.76
2017-04-12T05:52:12.438Z,63.85
2017-04-12T05:52:53.208Z,63.57
2017-04-12T05:53:33.995Z,63.76
2017-04-12T05:54:14.738Z,63.76
2017-04-12T05:54:55.422Z,63.67
2017-04-12T05:55:36.121Z,63.76
2017-04-12T05:56:16.930Z,63.76
2017-04-12T05:56:57.670Z,63.67
2017-04-12T05:57:53.059Z,63.38
2017-04-12T05:58:33.839Z,63.38
2017-04-12T05:59:14.536Z,63.57
2017-04-12T05:59:55.292Z,63.47
2017-04-12T06:00:36.027Z,62.51
2017-04-12T06:01:16.838Z,62.7
2017-04-12T06:01:57.636Z,61.83
2017-04-12T06:02:38.360Z,61.65
2017-04-12T06:03:19.112Z,61.74
2017-04-12T06:03:59.833Z,61.25
2017-04-12T06:04:40.561Z,61.25
2017-04-12T06:05:21.328Z,61.45
2017-04-12T06:06:02.234Z,60.97
2017-04-12T06:06:43.010Z,60.87
2017-04-12T06:07:23.765Z,61.07
2017-04-12T06:08:04.586Z,60.87
2017-04-12T06:08:48.364Z,60.97
2017-04-12T06:09:29.137Z,61.07
2017-04-12T06:10:09.873Z,61.16
2017-04-12T06:10:50.629Z,61.07
2017-04-12T06:11:31.375Z,60.97
2017-04-12T06:12:12.201Z,61.35
2017-04-12T06:12:52.980Z,61.16
2017-04-12T06:13:33.783Z,61.35
2017-04-12T06:14:14.582Z,61.93
2017-04-12T06:14:55.300Z,61.65
2017-04-12T06:15:36.028Z,61.93
2017-04-12T06:16:16.827Z,61.45
2017-04-12T06:16:57.594Z,61.65
2017-04-12T06:17:38.454Z,61.83
2017-04-12T06:18:19.263Z,61.55
2017-04-12T06:18:59.959Z,61.83
2017-04-12T06:19:40.680Z,61.45
2017-04-12T06:20:21.446Z,61.93
2017-04-12T06:21:02.220Z,61.55
2017-04-12T06:21:43.021Z,61.55
2017-04-12T06:22:23.775Z,61.93
2017-04-12T06:23:04.554Z,61.83
2017-04-12T06:23:45.263Z,61.65
2017-04-12T06:24:26.002Z,61.83
2017-04-12T06:25:06.740Z,62.03
2017-04-12T06:25:47.455Z,61.38
2017-04-12T06:26:28.233Z,61.38
2017-04-12T06:27:08.987Z,61.1
2017-04-12T06:28:04.527Z,60.9
2017-04-12T06:28:45.293Z,61.1
2017-04-12T06:29:26.024Z,60.9
2017-04-12T06:30:06.813Z,60.71
2017-04-12T06:30:47.559Z,60.61
2017-04-12T06:31:28.371Z,60.13
2017-04-12T06:32:09.080Z,60.03
2017-04-12T06:32:49.818Z,60.35
2017-04-12T06:33:30.632Z,59.78
2017-04-12T06:34:11.435Z,59.78
2017-04-12T06:34:52.177Z,59.58
2017-04-12T06:37:13.019Z,58.94
2017-04-12T06:37:53.739Z,59.03
2017-04-12T06:38:34.497Z,57.97
2017-04-12T06:39:15.267Z,57.87
2017-04-12T06:39:55.963Z,57.68
2017-04-12T06:40:36.793Z,57.97
2017-04-12T06:41:17.527Z,57.2
2017-04-12T06:41:58.250Z,56.94
2017-04-12T06:42:38.963Z,57.62
2017-04-12T06:43:19.708Z,56.84
2017-04-12T06:44:00.485Z,56.46
2017-04-12T06:44:41.267Z,56.46
2017-04-12T06:45:22.058Z,56.65
2017-04-12T06:46:02.988Z,55.98
2017-04-12T06:46:43.800Z,55.88
2017-04-12T06:47:24.525Z,56.26
2017-04-12T06:48:05.336Z,55.59
2017-04-12T06:48:46.093Z,55.71
2017-04-12T06:49:26.859Z,55.3
2017-04-12T06:50:07.628Z,55.33
2017-04-12T06:50:48.491Z,55.04
2017-04-12T06:51:29.255Z,54.84
2017-04-12T06:52:10.006Z,55.23
2017-04-12T06:52:50.704Z,55.04
2017-04-12T06:53:31.526Z,54.75
2017-04-12T06:54:12.299Z,54.94
2017-04-12T06:54:53.026Z,55.04
2017-04-12T06:55:33.773Z,54.27
2017-04-12T06:56:14.535Z,54.46
2017-04-12T06:56:55.255Z,54.27
2017-04-12T06:57:35.956Z,54.07
2017-04-12T06:58:16.695Z,54.27
2017-04-12T06:58:57.522Z,53.88
2017-04-12T06:59:38.439Z,53.97
2017-04-12T07:00:19.171Z,54.07
2017-04-12T07:00:59.865Z,54
2017-04-12T07:01:40.606Z,53.88
2017-04-12T07:02:21.429Z,53.88
2017-04-12T07:03:02.170Z,53.59
2017-04-12T07:03:42.956Z,53.69
2017-04-12T07:04:23.646Z,53.71
2017-04-12T07:05:04.406Z,53.42
2017-04-12T07:05:45.143Z,53.23
2017-04-12T07:06:26.847Z,53.23
2017-04-12T07:07:07.556Z,53.23
2017-04-12T07:07:48.274Z,53.13
2017-04-12T07:08:29.004Z,53.13
2017-04-12T07:09:09.749Z,53.13
2017-04-12T07:09:50.471Z,53.33
2017-04-12T07:10:31.206Z,52.94
2017-04-12T07:11:11.950Z,53.33
2017-04-12T07:11:52.684Z,53.33
2017-04-12T07:12:33.529Z,53.03
2017-04-12T07:13:14.254Z,52.26
2017-04-12T07:13:55.063Z,52.65
2017-04-12T07:14:35.938Z,52.45
2017-04-12T07:15:16.660Z,52.55
2017-04-12T07:15:57.421Z,52.26
2017-04-12T07:16:38.177Z,52.45
2017-04-12T07:17:18.889Z,52.07
2017-04-12T07:17:59.580Z,52.17
2017-04-12T07:18:40.322Z,52.07
2017-04-12T07:19:21.111Z,52.07
2017-04-12T07:20:01.856Z,52.17
2017-04-12T07:20:42.625Z,52.07
2017-04-12T07:21:23.439Z,52.17
2017-04-12T07:22:04.166Z,52.17
2017-04-12T07:22:44.866Z,52.07
2017-04-12T07:23:25.644Z,52.17
2017-04-12T07:24:06.363Z,52.26
2017-04-12T07:24:47.185Z,52.07
2017-04-12T07:25:27.880Z,52.09
2017-04-12T07:26:08.583Z,52
2017-04-12T07:26:49.410Z,51.97
2017-04-12T07:27:30.215Z,51.97
2017-04-12T07:28:10.963Z,51.97
2017-04-12T07:28:51.695Z,51.97
2017-04-12T07:29:32.426Z,52.19
2017-04-12T07:30:13.175Z,52.07
2017-04-12T07:30:53.970Z,52
2017-04-12T07:31:34.706Z,51.97
2017-04-12T07:32:15.513Z,51.97
2017-04-12T07:32:56.285Z,51.78
2017-04-12T07:33:37.056Z,51.97
2017-04-12T07:34:17.769Z,51.87
2017-04-12T07:34:58.477Z,51.2
2017-04-12T07:35:39.229Z,51.78
2017-04-12T07:36:26.660Z,51.39
2017-04-12T07:37:07.402Z,50.71
2017-04-12T07:37:48.171Z,51.1
2017-04-12T07:38:28.920Z,51.97
2017-04-12T07:39:09.632Z,52.07
2017-04-12T07:39:50.373Z,51.87
2017-04-12T07:40:31.236Z,52.07
2017-04-12T07:41:11.971Z,52.07
2017-04-12T07:41:52.713Z,51.29
2017-04-12T07:42:33.419Z,52.07
2017-04-12T07:43:14.210Z,52.17
2017-04-12T07:43:54.934Z,52.33
2017-04-12T07:44:35.661Z,52.65
2017-04-12T07:45:16.425Z,52.17
2017-04-12T07:45:57.160Z,51.68
2017-04-12T07:46:37.993Z,51.49
2017-04-12T07:47:18.697Z,51.97
2017-04-12T07:47:59.470Z,51.01
2017-04-12T07:48:40.253Z,51.2
2017-04-12T07:49:21.038Z,51.39
2017-04-12T07:50:01.818Z,51.1
2017-04-12T07:50:42.564Z,50.81
2017-04-12T07:51:23.337Z,51.29
2017-04-12T07:52:04.269Z,51.29
2017-04-12T07:52:45.082Z,52.07
2017-04-12T07:53:25.929Z,51.49
2017-04-12T07:54:07.107Z,51.23
2017-04-12T07:54:47.848Z,51.42
2017-04-12T07:55:28.652Z,51.39
2017-04-12T07:56:09.409Z,51.29
2017-04-12T07:56:50.236Z,51.71
2017-04-12T07:57:30.942Z,51.1
2017-04-12T07:58:11.688Z,51.49
2017-04-12T07:58:52.431Z,51.29
2017-04-12T07:59:33.114Z,49.95
2017-04-12T08:00:13.849Z,49.17
2017-04-12T08:00:54.585Z,49.53
2017-04-12T08:01:35.422Z,49.63
2017-04-12T08:02:16.146Z,48.86
2017-04-12T08:02:56.873Z,49.05
2017-04-12T08:03:37.622Z,49.15
2017-04-12T08:04:18.316Z,49.82
2017-04-12T08:04:59.141Z,49.05
2017-04-12T08:05:39.980Z,49.63
2017-04-12T08:06:27.579Z,50.21
2017-04-12T08:07:08.264Z,50.01
2017-04-12T08:07:49.051Z,49.53
2017-04-12T08:08:29.761Z,49.15
2017-04-12T08:09:10.608Z,49.24
2017-04-12T08:09:51.392Z,49.63
2017-04-12T08:10:32.165Z,49.34
2017-04-12T08:11:12.923Z,49.15
2017-04-12T08:11:53.636Z,49.24
2017-04-12T08:12:34.387Z,49.05
2017-04-12T08:13:15.123Z,48.47
2017-04-12T08:13:55.846Z,48.86
2017-04-12T08:14:36.650Z,48.57
2017-04-12T08:15:17.419Z,48.47
2017-04-12T08:15:58.249Z,48.28
2017-04-12T08:16:39.000Z,48.57
2017-04-12T08:17:19.746Z,48.47
2017-04-12T08:18:00.450Z,48.18
2017-04-12T08:18:41.273Z,48.18
2017-04-12T08:19:21.985Z,47.89
2017-04-12T08:20:02.729Z,47.89
2017-04-12T08:20:43.472Z,47.89
2017-04-12T08:21:24.295Z,47.58
2017-04-12T08:22:05.016Z,47.77
2017-04-12T08:22:45.701Z,48.06
2017-04-12T08:23:26.441Z,48.16
2017-04-12T08:24:07.211Z,48.25
2017-04-12T08:24:47.992Z,48.25
2017-04-12T08:25:28.760Z,47.96
2017-04-12T08:26:09.560Z,48.54
2017-04-12T08:26:50.300Z,49.22
2017-04-12T08:27:31.157Z,49.22
2017-04-12T08:28:11.887Z,48.64
2017-04-12T08:28:52.665Z,48.13
2017-04-12T08:29:33.418Z,48.25
2017-04-12T08:30:14.196Z,48.33
2017-04-12T08:30:54.976Z,48.52
2017-04-12T08:31:35.755Z,48.25
2017-04-12T08:32:16.486Z,48.35
2017-04-12T08:32:57.217Z,47.67
2017-04-12T08:33:37.988Z,47.58
2017-04-12T08:34:18.797Z,47.48
2017-04-12T08:34:59.608Z,47.29
2017-04-12T08:35:40.325Z,47.77
2017-04-12T08:36:21.128Z,47.77
2017-04-12T08:37:16.694Z,48.06
2017-04-12T08:37:57.514Z,47.77
2017-04-12T08:38:38.249Z,47.87
2017-04-12T08:39:19.006Z,47.67
2017-04-12T08:39:59.740Z,47.96
2017-04-12T08:40:40.426Z,47.87
2017-04-12T08:41:21.160Z,47.96
2017-04-12T08:42:01.968Z,47.87
2017-04-12T08:42:42.658Z,47.96
2017-04-12T08:43:23.423Z,47.87
2017-04-12T08:44:04.084Z,47.87
2017-04-12T08:44:44.867Z,47.87
2017-04-12T08:45:25.679Z,47.67
2017-04-12T08:46:06.455Z,47.87
2017-04-12T08:46:47.192Z,47.67
2017-04-12T08:47:27.966Z,47.87
2017-04-12T08:48:08.682Z,48.06
2017-04-12T08:48:49.546Z,47.87
2017-04-12T08:49:30.342Z,47.87
2017-04-12T08:50:11.146Z,48.16
2017-04-12T08:50:51.798Z,47.77
2017-04-12T08:51:32.483Z,47.96
2017-04-12T08:52:13.276Z,47.96
2017-04-12T08:52:54.041Z,48.25
2017-04-12T08:53:34.755Z,47.87
2017-04-12T08:54:15.464Z,48.23
2017-04-12T08:54:56.259Z,48.52
2017-04-12T08:55:37.001Z,48.42
2017-04-12T08:56:17.743Z,48.33
2017-04-12T08:56:58.536Z,48.54
2017-04-12T08:57:39.301Z,48.64
2017-04-12T08:58:20.055Z,47.87
2017-04-12T08:59:00.744Z,47.85
2017-04-12T08:59:41.448Z,48.52
2017-04-12T09:00:22.168Z,48.9
2017-04-12T09:01:02.906Z,48.88
2017-04-12T09:01:43.624Z,49.55
2017-04-12T09:02:24.380Z,49.07
2017-04-12T09:03:05.157Z,49.37
2017-04-12T09:03:45.862Z,48.61
2017-04-12T09:04:26.639Z,48.81
2017-04-12T09:05:07.427Z,48.52
2017-04-12T09:05:48.166Z,49.1
2017-04-12T09:06:28.859Z,48.42
2017-04-12T09:07:24.527Z,48.42
2017-04-12T09:08:05.313Z,48.61
2017-04-12T09:08:46.103Z,48.71
2017-04-12T09:09:26.850Z,48.61
2017-04-12T09:10:07.620Z,48.93
2017-04-12T09:10:48.419Z,48.74
2017-04-12T09:11:29.212Z,49.12
2017-04-12T09:12:09.944Z,49.02
2017-04-12T09:12:50.720Z,48.74
2017-04-12T09:13:31.443Z,49.02
2017-04-12T09:14:12.183Z,48.74
2017-04-12T09:14:52.968Z,48.64
2017-04-12T09:15:33.665Z,48.74
2017-04-12T09:16:14.471Z,48.93
2017-04-12T09:16:55.260Z,49.12
2017-04-12T09:17:36.058Z,48.93
2017-04-12T09:18:16.840Z,48.74
2017-04-12T09:18:57.551Z,48.74
2017-04-12T09:19:38.343Z,48.93
2017-04-12T09:20:19.002Z,48.74
2017-04-12T09:20:59.803Z,48.64
2017-04-12T09:21:40.528Z,48.64
2017-04-12T09:22:21.340Z,48.52
2017-04-12T09:23:02.067Z,48.93
2017-04-12T09:23:42.838Z,49.12
2017-04-12T09:24:23.627Z,48.74
2017-04-12T09:25:04.359Z,49.02
2017-04-12T09:25:45.087Z,49
2017-04-12T09:26:25.854Z,48.93
2017-04-12T09:27:06.573Z,49.02
2017-04-12T09:27:47.312Z,49.29
2017-04-12T09:28:28.007Z,49.22
2017-04-12T09:29:08.811Z,49.29
2017-04-12T09:29:49.652Z,49.19
2017-04-12T09:30:30.457Z,49.32
2017-04-12T09:31:11.194Z,49.1
2017-04-12T09:31:51.968Z,49.19
2017-04-12T09:32:32.849Z,49.19
2017-04-12T09:33:13.528Z,49
2017-04-12T09:33:54.209Z,49.41
2017-04-12T09:34:34.944Z,49.02
2017-04-12T09:35:15.697Z,49.22
2017-04-12T09:35:56.483Z,49.39
2017-04-12T09:36:37.269Z,49.12
2017-04-12T09:37:18.912Z,49.48
2017-04-12T09:37:59.642Z,49.22
2017-04-12T09:38:40.351Z,49.32
2017-04-12T09:39:21.092Z,48.83
2017-04-12T09:40:01.870Z,48.54
2017-04-12T09:40:42.683Z,48.9
2017-04-12T09:41:23.429Z,48.83
2017-04-12T09:42:04.178Z,48.93
2017-04-12T09:42:44.940Z,48.83
2017-04-12T09:43:25.751Z,48.74
2017-04-12T09:44:06.494Z,48.64
2017-04-12T09:44:47.296Z,49.12
2017-04-12T09:45:28.190Z,49.22
2017-04-12T09:46:08.956Z,49
2017-04-12T09:46:50.466Z,49.29
2017-04-12T09:47:30.486Z,49.22
2017-04-12T09:48:11.327Z,49.29
2017-04-12T09:48:52.036Z,49.58
2017-04-12T09:49:32.728Z,49.68
2017-04-12T09:50:13.521Z,49.39
2017-04-12T09:50:54.224Z,49.48
2017-04-12T09:51:34.967Z,49.39
2017-04-12T09:52:15.703Z,49.68